Arcadia Lakes, South Carolina
Current Conditions -  °F | °C
As of 5:53 AM on Wednesday 22 Oct 2014 (Local Time) from KCUB Reporting Station
Clear Clear  
Wind Chill: 51°   Ceiling: Unl
Heat Index: 51°   Visibility: 10mi
Dew Point: 42°   Wind: 3mph
Humidity: 71%   Direction: 330°NNW
Pressure: 30.02"   Gusts: NA
Location:  34.025°N, 80.9562°W
Report Text: KCUB 220953Z AUTO 33003KT 10SM CLR 11/06 A3002 RMK AO2 SLP164 T01060056 $
Loading
Personal Weather Stations






























Interactive Weather Map
Tropical Storm Tracking
New forecast layout! Learn more

10-Day Weather Forecast

Advertisements
Track Severe Weather on mobile